createdAt,value
2017-08-01T00:01:11.582Z,21.90
2017-08-01T00:03:41.030Z,21.88
2017-08-01T00:06:10.492Z,21.84
2017-08-01T00:08:39.973Z,21.80
2017-08-01T00:11:10.249Z,21.73
2017-08-01T00:13:39.684Z,21.70
2017-08-01T00:16:09.149Z,21.64
2017-08-01T00:18:38.598Z,21.64
2017-08-01T00:21:08.051Z,21.72
2017-08-01T00:23:37.496Z,21.73
2017-08-01T00:26:06.968Z,21.74
2017-08-01T00:28:36.404Z,21.78
2017-08-01T00:31:05.869Z,21.84
2017-08-01T00:33:35.307Z,21.81
2017-08-01T00:36:04.778Z,21.85
2017-08-01T00:38:34.210Z,21.86
2017-08-01T00:41:03.645Z,21.75
2017-08-01T00:43:33.118Z,21.67
2017-08-01T00:46:02.581Z,21.61
2017-08-01T00:48:32.019Z,21.53
2017-08-01T00:51:01.464Z,21.47
2017-08-01T00:53:30.910Z,21.41
2017-08-01T00:56:00.336Z,21.46
2017-08-01T00:58:29.780Z,21.56
2017-08-01T01:00:59.248Z,21.50
2017-08-01T01:03:29.362Z,21.47
2017-08-01T01:05:58.806Z,21.47
2017-08-01T01:08:28.250Z,21.49
2017-08-01T01:10:57.696Z,21.44
2017-08-01T01:13:27.137Z,21.39
2017-08-01T01:15:56.633Z,21.31
2017-08-01T01:18:25.881Z,21.27
2017-08-01T01:20:55.338Z,21.21
2017-08-01T01:23:24.805Z,21.22
2017-08-01T01:25:54.248Z,21.36
2017-08-01T01:28:23.687Z,21.43
2017-08-01T01:30:53.145Z,21.52
2017-08-01T01:33:22.597Z,21.42
2017-08-01T01:35:52.046Z,21.30
2017-08-01T01:38:21.524Z,21.19
2017-08-01T01:40:50.634Z,21.11
2017-08-01T01:43:20.092Z,21.02
2017-08-01T01:45:49.541Z,20.97
2017-08-01T01:48:19.059Z,20.87
2017-08-01T01:50:49.008Z,20.85
2017-08-01T01:53:18.158Z,20.76
2017-08-01T01:55:47.580Z,20.71
2017-08-01T01:58:17.044Z,20.65
2017-08-01T02:00:46.165Z,20.56
2017-08-01T02:03:15.624Z,20.53
2017-08-01T02:05:45.069Z,20.47
2017-08-01T02:08:14.512Z,20.43
2017-08-01T02:10:44.005Z,20.36
2017-08-01T02:13:13.481Z,20.32
2017-08-01T02:15:42.916Z,20.32
2017-08-01T02:18:12.185Z,20.31
2017-08-01T02:20:41.637Z,20.27
2017-08-01T02:23:10.776Z,20.25
2017-08-01T02:25:40.071Z,20.19
2017-08-01T02:28:09.714Z,20.14
2017-08-01T02:30:39.152Z,20.08
2017-08-01T02:33:08.625Z,20.12
2017-08-01T02:35:38.110Z,20.08
2017-08-01T02:38:07.536Z,20.09
2017-08-01T02:40:37.026Z,20.03
2017-08-01T02:43:06.478Z,19.95
2017-08-01T02:45:35.908Z,19.90
2017-08-01T02:48:05.366Z,19.82
2017-08-01T02:50:34.815Z,19.78
2017-08-01T02:53:04.277Z,19.73
2017-08-01T02:55:33.708Z,19.67
2017-08-01T02:58:03.173Z,19.65
2017-08-01T03:00:32.615Z,19.63
2017-08-01T03:03:01.877Z,19.59
2017-08-01T03:05:31.328Z,19.54
2017-08-01T03:08:00.784Z,19.51
2017-08-01T03:10:30.242Z,19.49
2017-08-01T03:12:59.715Z,19.45
2017-08-01T03:15:29.137Z,19.39
2017-08-01T03:17:58.597Z,19.32
2017-08-01T03:20:28.059Z,19.27
2017-08-01T03:22:57.509Z,19.23
2017-08-01T03:25:26.960Z,19.20
2017-08-01T03:27:56.397Z,19.17
2017-08-01T03:30:25.857Z,19.13
2017-08-01T03:32:55.313Z,19.10
2017-08-01T03:35:24.774Z,19.07
2017-08-01T03:37:54.216Z,19.06
2017-08-01T03:40:23.735Z,19.04
2017-08-01T03:42:53.178Z,19.03
2017-08-01T03:45:22.688Z,19.01
2017-08-01T03:47:52.165Z,19.00
2017-08-01T03:50:21.672Z,19.02
2017-08-01T03:52:51.116Z,19.03
2017-08-01T03:55:20.610Z,19.05
2017-08-01T03:57:50.139Z,19.06
2017-08-01T04:00:19.618Z,19.07
2017-08-01T04:02:49.036Z,19.07
2017-08-01T04:05:18.533Z,19.09
2017-08-01T04:07:47.970Z,19.13
2017-08-01T04:10:17.465Z,19.14
2017-08-01T04:12:46.904Z,19.16
2017-08-01T04:15:16.528Z,19.19
2017-08-01T04:17:46.151Z,19.20
2017-08-01T04:20:15.621Z,19.22
2017-08-01T04:22:45.214Z,19.26
2017-08-01T04:25:14.681Z,19.29
2017-08-01T04:27:44.162Z,19.35
2017-08-01T04:30:13.628Z,19.41
2017-08-01T04:32:43.297Z,19.46
2017-08-01T04:35:12.781Z,19.52
2017-08-01T04:37:42.226Z,19.58
2017-08-01T04:40:11.685Z,19.65
2017-08-01T04:42:41.512Z,19.73
2017-08-01T04:45:10.998Z,19.81
2017-08-01T04:47:40.258Z,19.91
2017-08-01T04:50:09.736Z,20.00
2017-08-01T04:52:39.201Z,20.10
2017-08-01T04:55:08.698Z,20.21
2017-08-01T04:57:38.182Z,20.31
2017-08-01T05:00:07.668Z,20.42
2017-08-01T05:02:37.101Z,20.52
2017-08-01T05:05:06.601Z,20.64
2017-08-01T05:07:36.034Z,20.76
2017-08-01T05:10:05.605Z,20.89
2017-08-01T05:12:35.042Z,21.00
2017-08-01T05:15:04.588Z,21.11
2017-08-01T05:17:34.018Z,21.22
2017-08-01T05:20:03.592Z,21.33
2017-08-01T05:22:33.051Z,21.45
2017-08-01T05:25:02.569Z,21.57
2017-08-01T05:27:32.026Z,21.69
2017-08-01T05:30:01.476Z,21.81
2017-08-01T05:32:30.928Z,21.95
2017-08-01T05:35:00.447Z,22.07
2017-08-01T05:37:29.887Z,22.21
2017-08-01T05:39:59.349Z,22.36
2017-08-01T05:42:28.782Z,22.50
2017-08-01T05:44:58.237Z,22.65
2017-08-01T05:47:27.685Z,22.80
2017-08-01T05:49:57.139Z,22.97
2017-08-01T05:52:26.589Z,23.11
2017-08-01T05:54:56.029Z,23.25
2017-08-01T05:57:25.507Z,23.40
2017-08-01T05:59:54.968Z,23.55
2017-08-01T06:02:24.435Z,23.69
2017-08-01T06:04:53.890Z,23.82
2017-08-01T06:07:23.338Z,23.96
2017-08-01T06:09:52.771Z,24.09
2017-08-01T06:12:22.221Z,24.21
2017-08-01T06:14:51.492Z,24.33
2017-08-01T06:17:20.945Z,24.42
2017-08-01T06:19:50.400Z,24.53
2017-08-01T06:22:19.847Z,24.63
2017-08-01T06:24:49.305Z,24.74
2017-08-01T06:27:18.757Z,24.86
2017-08-01T06:29:48.213Z,24.98
2017-08-01T06:32:17.660Z,25.10
2017-08-01T06:34:47.115Z,25.21
2017-08-01T06:37:16.573Z,25.31
2017-08-01T06:39:45.835Z,25.43
2017-08-01T06:42:15.293Z,25.56
2017-08-01T06:44:44.736Z,25.68
2017-08-01T06:47:14.193Z,25.79
2017-08-01T06:49:43.648Z,25.91
2017-08-01T06:52:13.088Z,26.02
2017-08-01T06:54:42.546Z,26.13
2017-08-01T06:57:13.621Z,26.24
2017-08-01T06:59:43.060Z,26.34
2017-08-01T07:02:12.621Z,26.47
2017-08-01T07:04:42.078Z,26.58
2017-08-01T07:07:11.549Z,26.73
2017-08-01T07:09:40.986Z,26.85
2017-08-01T07:12:10.439Z,26.99
2017-08-01T07:14:39.895Z,27.12
2017-08-01T07:17:09.340Z,27.29
2017-08-01T07:19:38.902Z,27.49
2017-08-01T07:22:08.359Z,27.69
2017-08-01T07:24:37.805Z,27.88
2017-08-01T07:27:07.275Z,28.04
2017-08-01T07:29:36.729Z,28.23
2017-08-01T07:32:06.177Z,28.45
2017-08-01T07:34:35.623Z,28.64
2017-08-01T07:37:04.879Z,28.80
2017-08-01T07:39:34.331Z,28.99
2017-08-01T07:42:03.806Z,29.18
2017-08-01T07:44:33.263Z,29.30
2017-08-01T07:47:02.716Z,29.44
2017-08-01T07:49:32.172Z,29.59
2017-08-01T07:52:01.627Z,29.69
2017-08-01T07:54:31.076Z,29.80
2017-08-01T07:57:00.534Z,29.85
2017-08-01T07:59:29.988Z,29.96
2017-08-01T08:01:59.426Z,30.00
2017-08-01T08:04:28.885Z,30.15
2017-08-01T08:06:58.352Z,30.27
2017-08-01T08:09:27.784Z,30.37
2017-08-01T08:11:57.234Z,30.51
2017-08-01T08:14:26.682Z,30.63
2017-08-01T08:16:56.124Z,30.72
2017-08-01T08:19:25.576Z,30.84
2017-08-01T08:21:55.033Z,30.94
2017-08-01T08:24:24.492Z,31.01
2017-08-01T08:26:53.925Z,31.10
2017-08-01T08:29:23.396Z,31.18
2017-08-01T08:31:52.830Z,31.29
2017-08-01T08:34:22.283Z,31.42
2017-08-01T08:36:51.731Z,31.48
2017-08-01T08:39:21.164Z,31.56
2017-08-01T08:41:50.617Z,31.67
2017-08-01T08:44:20.059Z,31.83
2017-08-01T08:46:49.514Z,31.91
2017-08-01T08:49:18.958Z,32.04
2017-08-01T08:51:48.413Z,32.14
2017-08-01T08:54:17.877Z,32.24
2017-08-01T08:56:47.346Z,32.32
2017-08-01T08:59:16.799Z,32.41
2017-08-01T09:01:46.249Z,32.57
2017-08-01T09:04:15.712Z,32.63
2017-08-01T09:06:45.160Z,32.70
2017-08-01T09:09:14.623Z,32.76
2017-08-01T09:11:44.736Z,32.85
2017-08-01T09:14:14.188Z,32.99
2017-08-01T09:16:43.632Z,32.92
2017-08-01T09:19:13.101Z,33.04
2017-08-01T09:21:42.554Z,33.11
2017-08-01T09:24:12.002Z,33.20
2017-08-01T09:26:41.445Z,33.26
2017-08-01T09:29:10.728Z,33.31
2017-08-01T09:31:40.169Z,33.35
2017-08-01T09:34:09.621Z,33.48
2017-08-01T09:36:39.077Z,33.63
2017-08-01T09:39:08.522Z,33.75
2017-08-01T09:41:37.971Z,33.82
2017-08-01T09:44:07.426Z,33.88
2017-08-01T09:46:36.861Z,33.94
2017-08-01T09:49:06.317Z,33.82
2017-08-01T09:51:35.757Z,33.90
2017-08-01T09:54:05.193Z,33.94
2017-08-01T09:56:34.643Z,33.86
2017-08-01T09:59:04.101Z,33.99
2017-08-01T10:01:33.556Z,34.04
2017-08-01T10:04:02.986Z,33.97
2017-08-01T10:06:32.449Z,34.12
2017-08-01T10:09:01.905Z,34.20
2017-08-01T10:11:31.363Z,34.32
2017-08-01T10:14:00.803Z,34.40
2017-08-01T10:16:30.257Z,34.32
2017-08-01T10:18:59.892Z,34.45
2017-08-01T10:21:29.335Z,34.64
2017-08-01T10:23:58.770Z,34.64
2017-08-01T10:26:28.218Z,34.82
2017-08-01T10:28:57.678Z,34.89
2017-08-01T10:31:27.138Z,35.03
2017-08-01T10:33:56.582Z,35.20
2017-08-01T10:36:26.025Z,35.25
2017-08-01T10:38:55.464Z,35.40
2017-08-01T10:41:24.916Z,35.51
2017-08-01T10:43:54.379Z,35.47
2017-08-01T10:46:23.823Z,35.76
2017-08-01T10:48:53.273Z,35.95
2017-08-01T10:51:22.744Z,36.04
2017-08-01T10:53:52.200Z,36.13
2017-08-01T10:56:21.654Z,36.29
2017-08-01T10:58:51.095Z,36.42
2017-08-01T11:01:20.550Z,36.42
2017-08-01T11:03:50.000Z,36.54
2017-08-01T11:06:19.481Z,36.61
2017-08-01T11:08:48.917Z,36.66
2017-08-01T11:11:18.365Z,36.75
2017-08-01T11:13:47.824Z,36.80
2017-08-01T11:16:17.312Z,36.95
2017-08-01T11:18:46.769Z,37.05
2017-08-01T11:21:16.222Z,37.06
2017-08-01T11:23:45.680Z,37.11
2017-08-01T11:26:15.141Z,37.09
2017-08-01T11:28:44.602Z,37.22
2017-08-01T11:31:14.040Z,37.23
2017-08-01T11:33:43.498Z,37.23
2017-08-01T11:36:12.960Z,37.38
2017-08-01T11:38:42.405Z,37.44
2017-08-01T11:41:11.868Z,36.80
2017-08-01T11:43:41.318Z,36.90
2017-08-01T11:46:10.770Z,37.02
2017-08-01T11:48:40.242Z,37.13
2017-08-01T11:51:09.502Z,37.25
2017-08-01T11:53:38.940Z,37.37
2017-08-01T11:56:08.454Z,37.48
2017-08-01T11:58:37.884Z,37.64
2017-08-01T12:01:07.577Z,37.91
2017-08-01T12:03:37.048Z,37.92
2017-08-01T12:06:06.513Z,38.07
2017-08-01T12:08:35.948Z,38.18
2017-08-01T12:11:05.479Z,38.28
2017-08-01T12:13:34.908Z,38.47
2017-08-01T12:16:04.360Z,38.39
2017-08-01T12:18:33.824Z,38.45
2017-08-01T12:21:03.273Z,38.48
2017-08-01T12:23:32.749Z,38.40
2017-08-01T12:26:02.212Z,38.65
2017-08-01T12:28:31.758Z,39.26
2017-08-01T12:31:01.023Z,40.04
2017-08-01T12:33:30.456Z,41.16
2017-08-01T12:35:59.892Z,42.25
2017-08-01T12:38:29.165Z,42.91
2017-08-01T12:40:58.636Z,43.42
2017-08-01T12:43:28.097Z,44.03
2017-08-01T12:45:57.648Z,44.70
2017-08-01T12:48:27.088Z,45.60
2017-08-01T12:50:56.529Z,46.29
2017-08-01T12:53:25.970Z,46.76
2017-08-01T12:55:55.434Z,46.49
2017-08-01T12:58:24.887Z,47.25
2017-08-01T13:00:54.367Z,47.48
2017-08-01T13:03:23.803Z,47.55
2017-08-01T13:05:53.255Z,48.73
2017-08-01T13:08:22.697Z,49.01
2017-08-01T13:10:52.138Z,49.77
2017-08-01T13:13:21.577Z,50.20
2017-08-01T13:15:51.021Z,50.40
2017-08-01T13:18:20.484Z,50.52
2017-08-01T13:20:49.925Z,50.41
2017-08-01T13:23:19.369Z,50.03
2017-08-01T13:25:49.410Z,49.46
2017-08-01T13:28:18.842Z,49.97
2017-08-01T13:30:48.277Z,50.62
2017-08-01T13:33:17.733Z,51.22
2017-08-01T13:35:47.765Z,51.21
2017-08-01T13:38:17.793Z,51.47
2017-08-01T13:40:47.819Z,52.10
2017-08-01T13:43:17.826Z,52.33
2017-08-01T13:45:47.841Z,52.90
2017-08-01T13:48:17.849Z,52.93
2017-08-01T13:50:47.868Z,53.27
2017-08-01T13:53:17.905Z,53.48
2017-08-01T13:55:47.904Z,53.64
2017-08-01T13:58:17.917Z,53.02
2017-08-01T14:00:47.934Z,53.47
2017-08-01T14:03:17.950Z,54.00
2017-08-01T14:05:47.969Z,53.65
2017-08-01T14:08:17.989Z,53.27
2017-08-01T14:10:48.024Z,52.93
2017-08-01T14:13:18.047Z,51.59
2017-08-01T14:15:48.044Z,51.51
2017-08-01T14:18:18.046Z,51.76
2017-08-01T14:20:48.124Z,52.26
2017-08-01T14:23:18.133Z,52.38
2017-08-01T14:25:48.161Z,52.99
2017-08-01T14:28:18.172Z,52.94
2017-08-01T14:30:48.169Z,53.49
2017-08-01T14:33:18.185Z,53.32
2017-08-01T14:35:48.195Z,53.54
2017-08-01T14:38:18.201Z,53.52
2017-08-01T14:40:48.217Z,53.72
2017-08-01T14:43:18.715Z,53.82
2017-08-01T14:45:48.760Z,53.72
2017-08-01T14:48:18.764Z,53.31
2017-08-01T14:50:49.322Z,52.76
2017-08-01T14:53:19.320Z,53.16
2017-08-01T14:55:49.329Z,53.47
2017-08-01T14:58:19.357Z,53.62
2017-08-01T15:00:49.385Z,53.84
2017-08-01T15:03:19.388Z,54.14
2017-08-01T15:05:49.434Z,53.60
2017-08-01T15:08:19.454Z,53.51
2017-08-01T15:10:49.484Z,53.66
2017-08-01T15:13:19.509Z,53.63
2017-08-01T15:15:49.516Z,53.45
2017-08-01T15:18:19.545Z,53.42
2017-08-01T15:20:49.549Z,53.27
2017-08-01T15:23:19.561Z,52.47
2017-08-01T15:25:49.632Z,52.72
2017-08-01T15:28:19.681Z,52.09
2017-08-01T15:30:49.843Z,51.96
2017-08-01T15:33:19.854Z,52.60
2017-08-01T15:35:49.676Z,52.89
2017-08-01T15:38:19.699Z,52.62
2017-08-01T15:40:49.720Z,52.14
2017-08-01T15:43:19.772Z,52.15
2017-08-01T15:45:49.763Z,51.29
2017-08-01T15:48:19.834Z,51.84
2017-08-01T15:50:50.158Z,51.67
2017-08-01T15:53:20.166Z,52.27
2017-08-01T15:55:50.206Z,51.97
2017-08-01T15:58:20.236Z,52.54
2017-08-01T16:00:50.270Z,52.06
2017-08-01T16:03:19.712Z,52.32
2017-08-01T16:05:49.721Z,52.88
2017-08-01T16:08:19.755Z,51.87
2017-08-01T16:10:49.763Z,51.70
2017-08-01T16:13:19.774Z,51.60
2017-08-01T16:15:49.804Z,52.04
2017-08-01T16:18:19.849Z,51.56
2017-08-01T16:20:49.881Z,51.22
2017-08-01T16:23:19.902Z,51.00
2017-08-01T16:25:49.913Z,51.31
2017-08-01T16:28:19.944Z,49.97
2017-08-01T16:30:50.007Z,50.73
2017-08-01T16:33:20.036Z,50.88
2017-08-01T16:35:50.058Z,50.53
2017-08-01T16:38:19.531Z,50.26
2017-08-01T16:40:49.544Z,50.24
2017-08-01T16:43:19.552Z,50.02
2017-08-01T16:45:49.012Z,49.72
2017-08-01T16:48:18.468Z,49.16
2017-08-01T16:50:47.905Z,49.21
2017-08-01T16:53:17.338Z,48.93
2017-08-01T16:55:46.801Z,48.14
2017-08-01T16:58:16.254Z,47.95
2017-08-01T17:00:45.694Z,48.22
2017-08-01T17:03:15.150Z,47.82
2017-08-01T17:05:44.596Z,47.17
2017-08-01T17:08:14.053Z,47.29
2017-08-01T17:10:43.516Z,46.62
2017-08-01T17:13:12.952Z,46.50
2017-08-01T17:15:42.385Z,46.52
2017-08-01T17:18:11.952Z,46.48
2017-08-01T17:20:41.393Z,45.79
2017-08-01T17:23:10.716Z,45.59
2017-08-01T17:25:40.201Z,45.61
2017-08-01T17:28:09.647Z,45.15
2017-08-01T17:30:39.099Z,44.64
2017-08-01T17:33:08.581Z,43.43
2017-08-01T17:35:38.033Z,43.54
2017-08-01T17:38:07.494Z,43.07
2017-08-01T17:40:36.929Z,42.39
2017-08-01T17:43:06.388Z,41.73
2017-08-01T17:45:35.869Z,41.07
2017-08-01T17:48:05.322Z,40.01
2017-08-01T17:50:34.809Z,39.09
2017-08-01T17:53:04.290Z,38.40
2017-08-01T17:55:33.730Z,37.76
2017-08-01T17:58:03.174Z,37.08
2017-08-01T18:00:32.643Z,36.49
2017-08-01T18:03:02.092Z,36.02
2017-08-01T18:05:31.894Z,35.59
2017-08-01T18:08:01.429Z,35.13
2017-08-01T18:10:30.920Z,34.68
2017-08-01T18:13:00.465Z,34.28
2017-08-01T18:15:29.924Z,33.86
2017-08-01T18:17:59.382Z,33.43
2017-08-01T18:20:28.879Z,32.82
2017-08-01T18:22:58.329Z,32.48
2017-08-01T18:25:27.757Z,32.26
2017-08-01T18:27:57.308Z,32.00
2017-08-01T18:30:26.765Z,31.72
2017-08-01T18:32:56.224Z,31.49
2017-08-01T18:35:25.681Z,31.25
2017-08-01T18:37:55.146Z,31.03
2017-08-01T18:40:24.649Z,30.78
2017-08-01T18:42:54.123Z,30.57
2017-08-01T18:45:23.648Z,30.35
2017-08-01T18:47:53.105Z,30.18
2017-08-01T18:50:22.628Z,30.02
2017-08-01T18:52:52.083Z,29.83
2017-08-01T18:55:21.724Z,29.61
2017-08-01T18:57:51.022Z,29.45
2017-08-01T19:00:20.503Z,29.31
2017-08-01T19:02:49.769Z,29.12
2017-08-01T19:05:19.466Z,28.97
2017-08-01T19:07:49.158Z,28.79
2017-08-01T19:10:19.178Z,28.65
2017-08-01T19:12:48.768Z,28.51
2017-08-01T19:15:18.516Z,28.38
2017-08-01T19:17:48.046Z,28.26
2017-08-01T19:20:18.242Z,28.16
2017-08-01T19:22:47.807Z,28.09
2017-08-01T19:25:17.643Z,28.03
2017-08-01T19:27:47.474Z,27.98
2017-08-01T19:30:17.127Z,27.96
2017-08-01T19:32:46.690Z,27.93
2017-08-01T19:35:16.284Z,27.89
2017-08-01T19:37:45.843Z,27.94
2017-08-01T19:40:15.504Z,27.92
2017-08-01T19:42:45.207Z,27.91
2017-08-01T19:45:14.713Z,27.85
2017-08-01T19:47:44.144Z,27.84
2017-08-01T19:50:13.654Z,27.82
2017-08-01T19:52:43.512Z,27.83
2017-08-01T19:55:13.146Z,27.77
2017-08-01T19:57:43.210Z,27.79
2017-08-01T20:00:12.877Z,27.80
2017-08-01T20:02:42.823Z,27.73
2017-08-01T20:05:12.547Z,27.75
2017-08-01T20:07:41.824Z,27.74
2017-08-01T20:10:11.542Z,27.81
2017-08-01T20:12:41.729Z,27.70
2017-08-01T20:15:11.545Z,27.62
2017-08-01T20:17:41.306Z,27.53
2017-08-01T20:20:11.101Z,27.44
2017-08-01T20:22:42.203Z,27.35
2017-08-01T20:25:12.248Z,27.30
2017-08-01T20:27:42.090Z,27.29
2017-08-01T20:30:11.669Z,27.29
2017-08-01T20:32:41.499Z,27.19
2017-08-01T20:35:11.466Z,27.14
2017-08-01T20:37:41.190Z,27.12
2017-08-01T20:40:10.840Z,27.02
2017-08-01T20:42:40.465Z,26.96
2017-08-01T20:45:10.209Z,26.97
2017-08-01T20:47:39.837Z,26.98
2017-08-01T20:50:09.622Z,26.89
2017-08-01T20:52:39.709Z,26.85
2017-08-01T20:55:09.443Z,26.81
2017-08-01T20:57:39.274Z,26.82
2017-08-01T21:00:09.214Z,26.97
2017-08-01T21:02:39.086Z,27.00
2017-08-01T21:05:08.940Z,26.96
2017-08-01T21:07:38.865Z,26.99
2017-08-01T21:10:08.603Z,26.97
2017-08-01T21:12:38.462Z,26.96
2017-08-01T21:15:08.217Z,26.94
2017-08-01T21:17:37.845Z,26.91
2017-08-01T21:20:07.424Z,26.86
2017-08-01T21:22:37.216Z,26.87
2017-08-01T21:25:06.697Z,26.81
2017-08-01T21:27:36.146Z,26.77
2017-08-01T21:30:05.640Z,26.78
2017-08-01T21:32:35.105Z,26.81
2017-08-01T21:35:04.608Z,26.79
2017-08-01T21:37:34.081Z,26.72
2017-08-01T21:40:03.562Z,26.68
2017-08-01T21:42:33.001Z,26.64
2017-08-01T21:45:02.504Z,26.61
2017-08-01T21:47:31.950Z,26.60
2017-08-01T21:50:01.487Z,26.82
2017-08-01T21:52:30.937Z,26.93
2017-08-01T21:55:00.393Z,27.09
2017-08-01T21:57:29.852Z,27.38
2017-08-01T21:59:59.403Z,27.54
2017-08-01T22:02:28.832Z,27.75
2017-08-01T22:04:58.289Z,27.85
2017-08-01T22:07:27.757Z,27.99
2017-08-01T22:09:57.296Z,28.31
2017-08-01T22:12:26.757Z,28.59
2017-08-01T22:14:56.217Z,28.81
2017-08-01T22:17:25.668Z,28.93
2017-08-01T22:19:55.117Z,29.02
2017-08-01T22:22:24.574Z,28.98
2017-08-01T22:24:54.049Z,29.00
2017-08-01T22:27:23.484Z,28.95
2017-08-01T22:29:52.948Z,28.80
2017-08-01T22:32:22.388Z,28.75
2017-08-01T22:34:51.841Z,28.63
2017-08-01T22:37:21.304Z,28.48
2017-08-01T22:39:50.749Z,28.33
2017-08-01T22:42:20.199Z,28.30
2017-08-01T22:44:49.664Z,28.26
2017-08-01T22:47:19.151Z,28.27
2017-08-01T22:49:48.590Z,28.15
2017-08-01T22:52:18.041Z,27.97
2017-08-01T22:54:47.515Z,27.82
2017-08-01T22:57:17.024Z,27.70
2017-08-01T22:59:46.486Z,27.57
2017-08-01T23:02:15.942Z,27.48
2017-08-01T23:04:45.389Z,27.38
2017-08-01T23:07:14.856Z,27.55
2017-08-01T23:09:44.309Z,27.46
2017-08-01T23:12:13.737Z,27.33
2017-08-01T23:14:43.314Z,27.23
2017-08-01T23:17:12.739Z,27.14
2017-08-01T23:19:42.191Z,27.10
2017-08-01T23:22:11.640Z,27.07
2017-08-01T23:24:41.018Z,26.98
2017-08-01T23:27:10.465Z,26.84
2017-08-01T23:29:39.906Z,26.81
2017-08-01T23:32:09.356Z,26.69
2017-08-01T23:34:38.808Z,26.62
2017-08-01T23:37:08.268Z,26.67
2017-08-01T23:39:37.709Z,26.66
2017-08-01T23:42:07.182Z,26.65
2017-08-01T23:44:36.628Z,26.67
2017-08-01T23:47:06.069Z,26.68
2017-08-01T23:49:35.513Z,26.58
2017-08-01T23:52:04.968Z,26.54
2017-08-01T23:54:34.400Z,26.47
2017-08-01T23:57:03.851Z,26.35
2017-08-01T23:59:33.297Z,26.28
